Time;durP1;ratioP1;P1;durP2;ratioP2;P2;SDS_P1;SDS_P2;PMS_P1;PMS_P2;Temp;Humidity;BMP_temperature;BMP_pressure;BME280_temperature;BME280_humidity;BME280_pressure;Samples;Min_cycle;Max_cycle;Signal;HPM_P1;HPM_P2
2023/05/23 00:01:06;;;;;;;15.95;10.40;;;20.30;99.90;;;;;;4997760;28;20022;-72
2023/05/23 00:03:31;;;;;;;23.58;10.95;;;20.30;99.90;;;;;;4998010;28;20026;-72
2023/05/23 00:05:57;;;;;;;14.18;9.85;;;20.20;99.90;;;;;;4997717;28;20031;-72
2023/05/23 00:08:23;;;;;;;16.13;11.13;;;20.20;99.90;;;;;;4998574;28;20029;-77
2023/05/23 00:10:49;;;;;;;17.50;10.68;;;20.20;99.90;;;;;;4998020;28;20141;-77
2023/05/23 00:13:16;;;;;;;19.73;10.48;;;20.30;99.90;;;;;;4998078;28;20093;-77
2023/05/23 00:15:41;;;;;;;17.33;9.95;;;20.30;99.90;;;;;;4998764;28;20105;-72
2023/05/23 00:18:09;;;;;;;16.75;10.45;;;20.30;99.90;;;;;;4997526;28;20061;-72
2023/05/23 00:20:36;;;;;;;15.18;10.75;;;20.40;99.90;;;;;;4998940;28;20110;-72
2023/05/23 00:23:03;;;;;;;19.58;10.85;;;20.40;99.90;;;;;;4997936;28;20050;-72
2023/05/23 00:25:33;;;;;;;15.38;10.00;;;20.40;99.90;;;;;;4998376;28;20114;-76
2023/05/23 00:27:59;;;;;;;15.20;10.20;;;20.40;99.90;;;;;;4997391;28;20022;-72
2023/05/23 00:30:26;;;;;;;17.08;10.55;;;20.40;99.90;;;;;;4997246;28;20023;-72
2023/05/23 00:32:53;;;;;;;15.00;10.05;;;20.50;99.90;;;;;;4998341;28;20023;-72
2023/05/23 00:35:19;;;;;;;18.88;11.40;;;20.60;99.90;;;;;;4997908;28;20024;-77
2023/05/23 00:37:46;;;;;;;17.38;11.05;;;20.60;99.90;;;;;;4998026;28;20030;-77
2023/05/23 00:40:12;;;;;;;20.88;11.38;;;20.50;99.90;;;;;;4997202;28;20026;-77
2023/05/23 00:42:37;;;;;;;19.48;11.82;;;20.40;99.90;;;;;;4997229;28;20022;-77
2023/05/23 00:45:04;;;;;;;17.80;11.55;;;20.40;99.90;;;;;;4997278;28;20060;-77
2023/05/23 00:47:31;;;;;;;18.27;11.00;;;20.30;99.90;;;;;;4998185;28;20034;-77
2023/05/23 00:49:56;;;;;;;17.90;12.55;;;20.20;99.90;;;;;;4997420;28;20057;-77
2023/05/23 00:52:22;;;;;;;16.83;11.70;;;20.20;99.90;;;;;;4997412;28;20065;-72
2023/05/23 00:54:48;;;;;;;18.40;11.85;;;20.30;99.90;;;;;;4998127;28;20026;-72
2023/05/23 00:57:13;;;;;;;22.20;12.05;;;20.20;99.90;;;;;;4997849;28;20068;-77
2023/05/23 00:59:39;;;;;;;18.52;11.93;;;20.20;99.90;;;;;;4997251;28;20030;-73
2023/05/23 01:02:05;;;;;;;20.58;12.13;;;20.30;99.90;;;;;;4996954;28;20053;-72
2023/05/23 01:04:33;;;;;;;18.02;11.52;;;20.30;99.90;;;;;;4996835;28;20088;-77
2023/05/23 01:06:59;;;;;;;21.10;13.57;;;20.30;99.90;;;;;;4996913;28;20124;-77
2023/05/23 01:09:27;;;;;;;18.88;13.05;;;20.30;99.90;;;;;;4997703;28;20026;-72
2023/05/23 01:12:14;;;;;;;22.25;12.85;;;20.40;99.90;;;;;;4996784;28;20029;-77
2023/05/23 01:14:59;;;;;;;19.70;12.88;;;20.30;99.90;;;;;;4997689;28;20022;-77
2023/05/23 01:17:40;;;;;;;21.33;13.60;;;20.20;99.90;;;;;;4996844;28;20109;-77
2023/05/23 01:20:35;;;;;;;23.27;13.57;;;20.10;99.90;;;;;;4997258;28;20034;-77
2023/05/23 01:23:20;;;;;;;21.75;13.00;;;20.00;99.90;;;;;;4997756;28;20029;-72
2023/05/23 01:26:07;;;;;;;19.40;13.40;;;20.00;99.90;;;;;;4996815;28;20031;-77
2023/05/23 01:28:37;;;;;;;20.45;13.20;;;19.90;99.90;;;;;;4997499;28;20109;-77
2023/05/23 01:31:05;;;;;;;22.30;13.65;;;19.80;99.90;;;;;;4997154;28;20026;-72
2023/05/23 01:33:31;;;;;;;20.92;13.60;;;19.80;99.90;;;;;;4997127;28;20047;-72
2023/05/23 01:36:00;;;;;;;19.65;13.27;;;19.70;99.90;;;;;;4996817;28;20027;-72
2023/05/23 01:38:25;;;;;;;23.63;13.43;;;19.70;99.90;;;;;;4996660;28;20019;-76
2023/05/23 01:40:52;;;;;;;18.85;12.75;;;19.70;99.90;;;;;;4996389;28;20034;-72
2023/05/23 01:43:18;;;;;;;20.83;13.20;;;19.50;99.90;;;;;;4996957;28;20026;-72
2023/05/23 01:45:43;;;;;;;20.80;13.15;;;19.50;99.90;;;;;;4996559;28;20030;-72
2023/05/23 01:48:11;;;;;;;21.73;11.05;;;19.50;99.90;;;;;;4999847;28;20034;-72
2023/05/23 01:50:37;;;;;;;22.35;13.10;;;19.40;99.90;;;;;;5000332;28;20054;-72
2023/05/23 01:53:03;;;;;;;21.05;12.70;;;19.40;99.90;;;;;;5001187;28;20062;-72
2023/05/23 01:55:29;;;;;;;18.05;11.43;;;19.40;99.90;;;;;;5000283;28;20026;-72
2023/05/23 01:57:56;;;;;;;15.38;11.23;;;19.40;99.90;;;;;;5001015;28;20037;-77
2023/05/23 02:00:23;;;;;;;15.73;10.05;;;19.40;99.90;;;;;;5000335;28;20117;-77
2023/05/23 02:02:48;;;;;;;16.35;9.73;;;19.30;99.90;;;;;;5000935;28;20026;-77
2023/05/23 02:05:14;;;;;;;15.40;9.30;;;19.30;99.90;;;;;;5001073;28;20018;-77
2023/05/23 02:07:39;;;;;;;14.77;8.73;;;19.20;99.90;;;;;;5000127;28;20022;-77
2023/05/23 02:10:07;;;;;;;13.68;8.18;;;19.20;99.90;;;;;;4999990;28;20046;-72
2023/05/23 02:12:33;;;;;;;13.43;8.10;;;19.10;99.90;;;;;;5000048;28;20027;-75
2023/05/23 02:14:59;;;;;;;11.00;7.70;;;19.00;99.90;;;;;;5000300;28;20053;-76
2023/05/23 02:17:25;;;;;;;15.77;8.85;;;19.00;99.90;;;;;;5000258;28;20026;-75
2023/05/23 02:19:50;;;;;;;13.55;7.40;;;18.90;99.90;;;;;;4999787;28;20030;-72
2023/05/23 02:22:16;;;;;;;13.25;7.10;;;18.90;99.90;;;;;;5000808;28;20026;-72
2023/05/23 02:24:41;;;;;;;12.90;7.53;;;18.90;99.90;;;;;;5000220;28;20063;-72
2023/05/23 02:27:07;;;;;;;13.25;7.00;;;18.80;99.90;;;;;;4999617;28;20022;-77
2023/05/23 02:29:32;;;;;;;12.80;6.93;;;18.80;99.90;;;;;;5000689;28;20026;-75
2023/05/23 02:31:58;;;;;;;12.68;6.55;;;18.70;99.90;;;;;;4999670;28;20033;-75
2023/05/23 02:34:23;;;;;;;10.95;6.03;;;18.60;99.90;;;;;;4999613;28;20022;-76
2023/05/23 02:36:50;;;;;;;10.07;6.43;;;18.60;99.90;;;;;;5000497;28;20105;-72
2023/05/23 02:39:16;;;;;;;10.80;6.70;;;18.60;99.90;;;;;;4999433;28;20038;-72
2023/05/23 02:41:41;;;;;;;13.35;6.43;;;18.60;99.90;;;;;;4999518;28;20030;-72
2023/05/23 02:44:07;;;;;;;13.70;6.65;;;18.60;99.90;;;;;;4999518;28;20053;-72
2023/05/23 02:46:32;;;;;;;10.02;6.63;;;18.60;99.90;;;;;;5000197;28;20026;-72
2023/05/23 02:48:58;;;;;;;11.93;7.05;;;18.50;99.90;;;;;;5000322;28;20061;-72
2023/05/23 02:51:23;;;;;;;12.40;6.53;;;18.50;99.90;;;;;;4999211;28;20029;-75
2023/05/23 02:53:49;;;;;;;8.77;6.43;;;18.40;99.90;;;;;;4999655;28;20033;-77
2023/05/23 02:56:14;;;;;;;13.80;8.07;;;18.40;99.90;;;;;;4999180;28;20022;-77
2023/05/23 02:58:40;;;;;;;11.30;7.53;;;18.40;99.90;;;;;;4998962;28;20029;-76
2023/05/23 03:01:07;;;;;;;14.32;8.48;;;18.40;99.90;;;;;;4999996;28;20025;-75
2023/05/23 03:03:32;;;;;;;15.07;8.48;;;18.40;99.90;;;;;;4999088;28;20062;-72
2023/05/23 03:05:58;;;;;;;13.43;7.68;;;18.30;99.90;;;;;;4998989;28;20057;-75
2023/05/23 03:08:24;;;;;;;11.80;8.65;;;18.20;99.90;;;;;;4998902;28;20053;-72
2023/05/23 03:10:50;;;;;;;11.45;7.63;;;18.40;99.90;;;;;;4999689;28;20033;-72
2023/05/23 03:13:16;;;;;;;11.48;8.68;;;18.40;99.90;;;;;;4999935;28;20026;-75
2023/05/23 03:15:42;;;;;;;10.90;8.00;;;18.40;99.90;;;;;;4998777;28;20046;-75
2023/05/23 03:18:07;;;;;;;13.57;8.32;;;18.30;99.90;;;;;;4998779;28;20022;-75
2023/05/23 03:20:33;;;;;;;14.05;8.60;;;18.30;99.90;;;;;;4998670;28;20030;-72
2023/05/23 03:22:58;;;;;;;12.10;7.75;;;18.20;99.90;;;;;;4999441;28;20030;-72
2023/05/23 03:25:24;;;;;;;13.10;8.43;;;18.20;99.90;;;;;;4998991;28;20026;-75
2023/05/23 03:27:50;;;;;;;17.52;8.02;;;18.10;99.90;;;;;;4998380;28;20026;-75
2023/05/23 03:30:16;;;;;;;13.43;7.57;;;18.10;99.90;;;;;;4998430;28;20109;-72
2023/05/23 03:32:41;;;;;;;9.35;6.90;;;18.10;99.90;;;;;;4999202;28;20027;-72
2023/05/23 03:35:07;;;;;;;9.43;6.32;;;18.20;99.90;;;;;;4999529;28;20154;-75
2023/05/23 03:37:33;;;;;;;9.73;6.60;;;18.30;99.90;;;;;;4998737;28;20027;-72
2023/05/23 03:39:58;;;;;;;10.18;6.38;;;18.20;99.90;;;;;;4998244;28;20029;-72
2023/05/23 03:42:24;;;;;;;8.77;5.68;;;18.20;99.90;;;;;;4999209;28;20038;-76
2023/05/23 03:44:49;;;;;;;6.65;5.22;;;18.30;99.90;;;;;;4998192;28;20029;-75
2023/05/23 03:47:15;;;;;;;8.98;5.13;;;18.30;99.90;;;;;;4998230;28;20042;-72
2023/05/23 03:49:41;;;;;;;8.40;5.28;;;18.30;99.90;;;;;;4998990;28;20033;-72
2023/05/23 03:52:06;;;;;;;9.60;5.45;;;18.30;99.90;;;;;;4998877;28;20019;-77
2023/05/23 03:54:32;;;;;;;7.88;5.75;;;18.40;99.90;;;;;;4998786;28;20057;-72
2023/05/23 03:56:57;;;;;;;7.00;5.75;;;18.40;99.90;;;;;;4997990;28;20022;-72
2023/05/23 03:59:23;;;;;;;12.60;6.78;;;18.50;99.90;;;;;;4998851;28;20026;-72
2023/05/23 04:01:48;;;;;;;7.95;5.25;;;18.40;99.90;;;;;;4998334;28;20030;-72
2023/05/23 04:04:15;;;;;;;11.02;6.00;;;18.30;99.90;;;;;;4997857;28;20030;-73
2023/05/23 04:06:41;;;;;;;6.97;5.60;;;18.30;99.90;;;;;;4999067;28;20018;-72
2023/05/23 04:09:07;;;;;;;14.95;5.15;;;18.30;99.90;;;;;;4997696;28;20029;-72
2023/05/23 04:11:33;;;;;;;7.60;4.97;;;18.40;99.90;;;;;;4997771;28;20022;-77
2023/05/23 04:13:58;;;;;;;9.02;5.47;;;18.40;99.90;;;;;;4998166;28;20045;-77
2023/05/23 04:16:24;;;;;;;8.05;5.82;;;18.40;99.90;;;;;;4997688;28;20066;-72
2023/05/23 04:18:50;;;;;;;8.15;5.70;;;18.40;99.90;;;;;;4998865;28;20023;-72
2023/05/23 04:21:16;;;;;;;7.28;5.55;;;18.40;99.90;;;;;;4998191;28;20096;-72
2023/05/23 04:23:41;;;;;;;8.02;4.82;;;18.40;99.90;;;;;;4997866;28;20034;-72
2023/05/23 04:26:09;;;;;;;5.70;4.40;;;18.40;99.90;;;;;;4997764;28;20022;-72
2023/05/23 04:28:34;;;;;;;6.45;3.70;;;18.20;99.90;;;;;;4997377;28;20022;-72
2023/05/23 04:31:01;;;;;;;7.32;3.25;;;18.20;99.90;;;;;;4997451;28;20033;-72
2023/05/23 04:33:29;;;;;;;3.67;3.25;;;18.00;99.90;;;;;;4997312;28;20025;-72
2023/05/23 04:35:55;;;;;;;3.70;3.10;;;18.10;99.90;;;;;;4997400;28;20023;-72
2023/05/23 04:38:23;;;;;;;4.72;3.00;;;18.10;99.90;;;;;;4997513;28;20030;-77
2023/05/23 04:40:50;;;;;;;4.03;2.80;;;18.10;99.90;;;;;;4998211;28;20022;-77
2023/05/23 04:43:15;;;;;;;4.88;2.78;;;18.10;99.90;;;;;;4997248;28;20034;-77
2023/05/23 04:45:41;;;;;;;4.68;2.75;;;18.20;99.90;;;;;;4997247;28;20125;-77
2023/05/23 04:48:07;;;;;;;4.45;2.85;;;18.20;99.90;;;;;;4997164;28;20034;-75
2023/05/23 04:50:36;;;;;;;3.65;2.40;;;18.20;99.90;;;;;;4997109;28;20151;-75
2023/05/23 04:53:02;;;;;;;4.05;2.63;;;18.20;99.90;;;;;;4997225;28;20080;-75
2023/05/23 04:55:27;;;;;;;4.68;3.17;;;18.20;99.90;;;;;;4997198;28;20026;-75
2023/05/23 04:57:53;;;;;;;4.03;2.83;;;18.10;99.90;;;;;;4996994;28;20022;-75
2023/05/23 05:00:19;;;;;;;3.42;2.83;;;18.10;99.90;;;;;;4996954;28;20109;-75
2023/05/23 05:02:44;;;;;;;3.88;3.05;;;18.10;99.90;;;;;;4996828;28;20109;-75
2023/05/23 05:05:10;;;;;;;3.40;3.00;;;18.10;99.90;;;;;;4996935;28;20029;-76
2023/05/23 05:07:35;;;;;;;5.78;2.70;;;18.10;99.90;;;;;;4997116;28;20030;-75
2023/05/23 05:10:02;;;;;;;3.08;2.30;;;18.10;99.90;;;;;;4996654;28;20037;-75
2023/05/23 05:12:27;;;;;;;4.20;3.03;;;18.10;99.90;;;;;;4997092;28;20022;-75
2023/05/23 05:14:53;;;;;;;3.30;2.65;;;18.20;99.90;;;;;;4996780;28;20026;-75
2023/05/23 05:17:18;;;;;;;3.67;2.88;;;18.10;99.90;;;;;;4996873;28;20046;-75
2023/05/23 05:19:45;;;;;;;4.57;3.03;;;18.10;99.90;;;;;;4996799;28;20022;-75
2023/05/23 05:22:10;;;;;;;5.05;2.50;;;18.00;99.90;;;;;;5003066;28;20030;-75
2023/05/23 05:24:36;;;;;;;3.80;2.78;;;18.00;99.90;;;;;;5003243;28;20030;-75
2023/05/23 05:27:02;;;;;;;3.38;2.67;;;18.00;99.90;;;;;;5004022;28;20031;-75
2023/05/23 05:29:28;;;;;;;4.50;2.97;;;18.00;99.90;;;;;;5003203;28;20030;-76
2023/05/23 05:31:53;;;;;;;4.90;2.80;;;18.00;99.90;;;;;;5003108;28;20033;-76
2023/05/23 05:34:19;;;;;;;4.13;3.33;;;18.10;99.90;;;;;;5003099;28;20022;-75
2023/05/23 05:36:46;;;;;;;5.15;2.83;;;18.20;99.90;;;;;;5004181;28;20105;-75
2023/05/23 05:39:13;;;;;;;5.30;2.97;;;18.10;99.90;;;;;;5003095;28;20030;-75
2023/05/23 05:41:39;;;;;;;3.65;2.70;;;18.10;99.90;;;;;;5003143;28;20188;-76
2023/05/23 05:44:05;;;;;;;2.17;1.95;;;18.10;99.90;;;;;;5003912;28;20027;-76
2023/05/23 05:46:30;;;;;;;4.70;2.45;;;18.20;99.90;;;;;;5003049;28;20034;-76
2023/05/23 05:48:56;;;;;;;3.17;2.40;;;18.20;99.90;;;;;;5003067;28;20033;-76
2023/05/23 05:51:21;;;;;;;4.18;2.75;;;18.20;99.90;;;;;;5002878;28;20113;-75
2023/05/23 05:53:48;;;;;;;5.13;2.63;;;18.20;99.90;;;;;;5003069;28;20025;-76
2023/05/23 05:56:14;;;;;;;4.35;2.53;;;18.30;99.90;;;;;;5003175;28;20047;-76
2023/05/23 05:58:40;;;;;;;2.63;2.15;;;18.30;99.90;;;;;;5003347;28;20026;-76
2023/05/23 06:01:05;;;;;;;3.60;2.58;;;18.20;99.90;;;;;;5002887;28;20057;-75
2023/05/23 06:03:32;;;;;;;2.92;2.17;;;18.20;99.90;;;;;;5003153;28;20112;-72
2023/05/23 06:05:58;;;;;;;5.40;2.30;;;18.20;99.90;;;;;;5002989;28;20026;-72
2023/05/23 06:08:23;;;;;;;7.53;3.05;;;18.20;99.90;;;;;;5003666;28;20026;-72
2023/05/23 06:10:49;;;;;;;2.78;2.47;;;18.30;99.90;;;;;;5003083;28;20045;-73
2023/05/23 06:13:15;;;;;;;4.60;2.17;;;18.30;99.90;;;;;;5002827;28;20018;-73
2023/05/23 06:15:40;;;;;;;3.65;2.35;;;18.30;99.90;;;;;;5002747;28;20026;-73
2023/05/23 06:18:06;;;;;;;5.28;2.47;;;18.30;99.90;;;;;;5003785;28;20022;-73
2023/05/23 06:20:31;;;;;;;3.92;2.50;;;18.30;99.90;;;;;;5023374;22;20125;-74
2023/05/23 06:22:58;;;;;;;3.97;3.03;;;18.30;99.90;;;;;;4983386;28;20104;-74
2023/05/23 06:25:24;;;;;;;3.67;2.60;;;18.30;99.90;;;;;;4999771;28;20023;-74
2023/05/23 06:27:49;;;;;;;4.10;2.47;;;18.40;99.90;;;;;;4999633;28;20030;-74
2023/05/23 06:30:15;;;;;;;3.85;2.58;;;18.30;99.90;;;;;;4999222;28;20026;-74
2023/05/23 06:32:41;;;;;;;5.85;2.97;;;18.30;99.90;;;;;;4980904;28;20022;-74
2023/05/23 06:35:06;;;;;;;3.72;2.95;;;18.30;99.90;;;;;;4980448;28;20026;-74
2023/05/23 06:37:33;;;;;;;4.55;2.97;;;18.20;99.90;;;;;;4980534;28;20045;-74
2023/05/23 06:39:58;;;;;;;7.30;3.53;;;18.20;99.90;;;;;;4980876;28;20051;-74
2023/05/23 06:42:24;;;;;;;3.88;2.83;;;18.20;99.90;;;;;;4979902;28;20035;-74
2023/05/23 06:44:49;;;;;;;4.95;3.40;;;18.30;99.90;;;;;;4980319;28;20027;-74
2023/05/23 06:47:15;;;;;;;3.30;2.97;;;18.40;99.90;;;;;;4979911;28;20027;-74
2023/05/23 06:49:42;;;;;;;6.47;3.38;;;18.30;99.90;;;;;;4979769;28;20019;-74
2023/05/23 06:52:07;;;;;;;6.57;3.50;;;18.40;99.90;;;;;;4979748;28;20023;-74
2023/05/23 06:54:33;;;;;;;3.60;2.90;;;18.40;99.90;;;;;;4980047;28;20023;-74
2023/05/23 06:56:58;;;;;;;4.55;3.45;;;18.40;99.90;;;;;;4979536;28;20153;-74
2023/05/23 06:59:24;;;;;;;6.15;3.40;;;18.30;99.90;;;;;;4980565;28;20023;-74
2023/05/23 07:01:50;;;;;;;5.07;3.10;;;18.20;99.90;;;;;;4979389;28;20030;-74
2023/05/23 07:04:15;;;;;;;4.70;3.83;;;18.30;99.90;;;;;;4979605;28;20033;-74
2023/05/23 07:06:41;;;;;;;4.35;3.22;;;18.30;99.90;;;;;;4980067;28;20019;-74
2023/05/23 07:09:07;;;;;;;22.85;4.88;;;18.50;99.90;;;;;;4979479;28;20035;-74
2023/05/23 07:11:32;;;;;;;8.00;3.40;;;18.50;99.90;;;;;;4979549;28;20038;-73
2023/05/23 07:13:58;;;;;;;4.68;3.35;;;18.40;99.90;;;;;;4979596;28;20038;-73
2023/05/23 07:16:23;;;;;;;4.35;3.13;;;18.30;99.90;;;;;;4980168;28;20117;-73
2023/05/23 07:18:49;;;;;;;2.97;2.67;;;18.30;99.90;;;;;;4979615;28;20023;-73
2023/05/23 07:21:15;;;;;;;2.88;2.53;;;18.20;99.90;;;;;;4979419;28;20041;-73
2023/05/23 07:23:40;;;;;;;4.45;2.40;;;18.30;99.90;;;;;;4979189;28;20022;-73
2023/05/23 07:26:08;;;;;;;3.65;2.55;;;18.30;99.90;;;;;;4979588;28;20076;-74
2023/05/23 07:28:34;;;;;;;4.75;2.50;;;18.50;99.90;;;;;;4979112;28;20030;-73
2023/05/23 07:31:00;;;;;;;3.88;2.38;;;18.50;99.90;;;;;;4980010;28;20030;-74
2023/05/23 07:33:25;;;;;;;4.88;2.35;;;18.60;99.90;;;;;;4979158;28;20027;-73
2023/05/23 07:35:51;;;;;;;3.03;2.20;;;18.60;99.90;;;;;;4978934;28;20027;-73
2023/05/23 07:38:16;;;;;;;3.75;2.40;;;18.70;99.90;;;;;;4979543;28;20018;-73
2023/05/23 07:40:42;;;;;;;3.72;2.33;;;18.70;99.90;;;;;;4979680;28;20050;-75
2023/05/23 07:43:07;;;;;;;3.22;2.17;;;18.70;99.90;;;;;;4978898;28;20050;-73
2023/05/23 07:45:33;;;;;;;4.30;2.50;;;18.70;99.90;;;;;;4978411;28;20018;-73
2023/05/23 07:47:58;;;;;;;2.75;2.22;;;18.70;99.90;;;;;;4978929;28;20022;-73
2023/05/23 07:50:26;;;;;;;4.50;2.20;;;18.80;99.90;;;;;;4979568;28;20054;-72
2023/05/23 07:52:52;;;;;;;2.58;2.30;;;18.80;99.90;;;;;;4979606;28;20019;-73
2023/05/23 07:55:17;;;;;;;2.63;2.10;;;18.90;99.90;;;;;;4978843;28;20026;-73
2023/05/23 07:57:43;;;;;;;2.45;1.90;;;19.10;99.90;;;;;;4979470;28;20033;-72
2023/05/23 08:00:09;;;;;;;3.03;2.33;;;19.10;99.90;;;;;;4978722;28;20114;-72
2023/05/23 08:02:35;;;;;;;3.65;2.00;;;19.10;99.90;;;;;;4978603;28;20058;-72
2023/05/23 08:05:01;;;;;;;2.80;1.73;;;19.10;99.90;;;;;;4978441;28;20038;-73
2023/05/23 08:07:26;;;;;;;2.63;2.20;;;19.30;99.90;;;;;;4979295;28;20027;-72
2023/05/23 08:09:52;;;;;;;7.40;2.70;;;19.40;99.90;;;;;;4979146;28;20030;-73
2023/05/23 08:12:17;;;;;;;2.03;1.83;;;19.30;99.90;;;;;;4979128;28;20027;-73
2023/05/23 08:14:43;;;;;;;2.60;2.05;;;19.10;99.90;;;;;;4978634;28;20019;-73
2023/05/23 08:17:11;;;;;;;2.70;2.30;;;19.10;99.90;;;;;;4978508;28;20019;-73
2023/05/23 08:19:36;;;;;;;1.98;1.65;;;19.20;99.90;;;;;;4978407;28;20069;-74
2023/05/23 08:22:03;;;;;;;2.67;1.88;;;19.00;99.90;;;;;;4978169;28;20035;-73
2023/05/23 08:24:29;;;;;;;3.58;2.38;;;19.00;99.90;;;;;;4978513;28;20027;-73
2023/05/23 08:26:55;;;;;;;3.83;2.33;;;19.00;99.90;;;;;;4978302;28;20026;-73
2023/05/23 08:29:21;;;;;;;2.50;2.25;;;18.90;99.90;;;;;;4978689;28;20030;-74
2023/05/23 08:31:46;;;;;;;3.80;2.10;;;18.90;99.90;;;;;;4978072;28;20022;-73
2023/05/23 08:34:13;;;;;;;4.68;2.53;;;18.90;99.90;;;;;;4978505;28;20031;-73
2023/05/23 08:36:39;;;;;;;3.38;2.28;;;18.90;99.90;;;;;;4978167;28;20023;-73
2023/05/23 08:39:04;;;;;;;3.83;2.30;;;19.00;99.90;;;;;;4978905;28;20173;-73
2023/05/23 08:41:30;;;;;;;4.75;3.33;;;19.00;99.90;;;;;;4978025;28;20026;-73
2023/05/23 08:43:59;;;;;;;3.03;2.30;;;19.00;99.90;;;;;;4977890;28;20094;-72
2023/05/23 08:46:26;;;;;;;3.78;2.17;;;19.10;99.90;;;;;;4978725;28;20033;-72
2023/05/23 08:48:54;;;;;;;3.15;2.15;;;19.10;99.90;;;;;;4977584;28;20030;-72
2023/05/23 08:51:25;;;;;;;2.53;2.30;;;19.00;99.90;;;;;;4978154;28;20122;-72
2023/05/23 08:53:52;;;;;;;6.25;2.33;;;19.00;99.90;;;;;;4977715;28;20027;-72
2023/05/23 08:56:18;;;;;;;3.72;2.58;;;19.00;99.90;;;;;;4977221;28;20027;-72
2023/05/23 08:58:46;;;;;;;4.60;2.65;;;19.00;99.90;;;;;;4977482;28;20023;-72
2023/05/23 09:01:13;;;;;;;3.45;2.15;;;19.00;99.90;;;;;;4977933;28;20054;-73
2023/05/23 09:03:41;;;;;;;5.95;2.70;;;19.00;99.90;;;;;;4977820;28;20034;-72
2023/05/23 09:06:07;;;;;;;3.03;2.42;;;19.00;99.90;;;;;;4977715;28;20030;-73
2023/05/23 09:08:33;;;;;;;3.45;2.75;;;18.90;99.90;;;;;;4978065;28;20023;-73
2023/05/23 09:11:01;;;;;;;2.83;2.42;;;18.90;99.90;;;;;;4978456;28;20034;-70
2023/05/23 09:13:29;;;;;;;3.08;2.53;;;18.90;99.90;;;;;;4978371;28;20023;-72
2023/05/23 09:16:01;;;;;;;4.57;2.55;;;18.90;99.90;;;;;;4978104;28;20026;-71
2023/05/23 09:18:36;;;;;;;7.45;2.50;;;19.00;99.90;;;;;;4978270;28;20105;-72
2023/05/23 09:21:02;;;;;;;3.63;2.25;;;19.00;99.90;;;;;;4978300;28;20105;-71
2023/05/23 09:23:35;;;;;;;2.95;2.08;;;19.10;99.90;;;;;;4977513;28;20042;-71
2023/05/23 09:26:07;;;;;;;2.70;1.98;;;18.90;99.90;;;;;;4977666;28;20030;-71
2023/05/23 09:28:34;;;;;;;2.67;1.98;;;18.90;99.90;;;;;;4978191;28;20031;-71
2023/05/23 09:31:03;;;;;;;3.40;2.30;;;18.90;99.90;;;;;;4978092;28;20031;-71
2023/05/23 09:33:34;;;;;;;2.63;1.80;;;19.00;99.90;;;;;;4977214;28;20023;-71
2023/05/23 09:36:00;;;;;;;2.92;2.00;;;18.80;99.90;;;;;;4977440;28;20026;-71
2023/05/23 09:38:27;;;;;;;2.13;1.77;;;18.90;99.90;;;;;;4977344;28;20035;-71
2023/05/23 09:40:55;;;;;;;3.53;2.20;;;19.00;99.90;;;;;;4977101;28;20034;-71
2023/05/23 09:43:21;;;;;;;2.65;1.77;;;19.10;99.90;;;;;;4977483;28;20050;-71
2023/05/23 09:45:46;;;;;;;1.95;1.75;;;19.00;99.90;;;;;;4976990;28;20099;-71
2023/05/23 09:48:14;;;;;;;4.70;2.10;;;19.00;99.90;;;;;;4977069;28;20043;-71
2023/05/23 09:50:40;;;;;;;2.30;1.73;;;19.00;99.90;;;;;;4978099;28;20023;-71
2023/05/23 09:53:06;;;;;;;2.65;1.70;;;19.00;99.90;;;;;;4977001;28;20019;-71
2023/05/23 09:55:31;;;;;;;3.65;1.80;;;19.00;99.90;;;;;;4977104;28;20025;-71
2023/05/23 09:57:58;;;;;;;3.17;1.73;;;19.10;99.90;;;;;;4977038;28;20022;-71
2023/05/23 10:00:24;;;;;;;2.20;1.42;;;19.10;99.90;;;;;;4977411;28;20034;-71
2023/05/23 10:03:13;;;;;;;3.17;1.45;;;19.10;99.90;;;;;;4977290;28;20022;-71
2023/05/23 10:05:55;;;;;;;2.00;1.10;;;19.00;99.90;;;;;;4977039;28;20085;-70
2023/05/23 10:08:26;;;;;;;1.38;1.27;;;18.80;99.90;;;;;;4979068;28;20082;-71
2023/05/23 10:10:55;;;;;;;1.15;1.05;;;18.60;99.90;;;;;;4981645;28;20026;-71
2023/05/23 10:13:25;;;;;;;1.70;1.00;;;18.40;99.90;;;;;;4981365;28;20073;-71
2023/05/23 10:15:58;;;;;;;1.77;1.17;;;18.50;99.90;;;;;;4980582;28;20026;-71
2023/05/23 10:18:28;;;;;;;2.63;1.30;;;18.60;99.90;;;;;;4981418;28;20046;-71
2023/05/23 10:21:00;;;;;;;3.03;1.10;;;18.60;99.90;;;;;;4980459;28;20030;-71
2023/05/23 10:23:27;;;;;;;3.65;1.50;;;18.60;99.90;;;;;;4980455;28;20027;-71
2023/05/23 10:25:54;;;;;;;1.45;1.27;;;18.70;99.90;;;;;;4980384;28;20023;-71
2023/05/23 10:28:20;;;;;;;2.17;1.50;;;18.90;99.90;;;;;;4981424;28;20027;-71
2023/05/23 10:30:45;;;;;;;1.90;0.98;;;18.90;99.90;;;;;;4981175;28;20019;-71
2023/05/23 10:33:13;;;;;;;1.05;0.95;;;18.90;99.90;;;;;;4981166;28;20029;-71
2023/05/23 10:35:55;;;;;;;2.40;1.35;;;19.00;99.90;;;;;;4981127;28;20022;-71
2023/05/23 10:38:45;;;;;;;1.15;0.90;;;19.00;99.90;;;;;;4980842;28;20073;-71
2023/05/23 10:41:10;;;;;;;1.50;1.00;;;18.90;99.90;;;;;;4980866;28;20100;-71
2023/05/23 10:43:39;;;;;;;3.55;1.08;;;18.90;99.90;;;;;;4980104;28;20027;-71
2023/05/23 10:46:07;;;;;;;1.63;0.73;;;18.90;99.90;;;;;;4980297;28;20030;-71
2023/05/23 10:48:34;;;;;;;1.65;0.80;;;18.90;99.90;;;;;;4980937;28;20034;-71
2023/05/23 10:51:02;;;;;;;2.00;0.90;;;19.00;99.90;;;;;;4980217;28;20034;-71
2023/05/23 10:53:30;;;;;;;1.10;0.90;;;19.00;99.90;;;;;;4979722;28;20035;-71
2023/05/23 10:55:56;;;;;;;1.20;0.90;;;18.90;99.90;;;;;;4979727;28;20087;-71
2023/05/23 10:58:22;;;;;;;1.00;0.90;;;18.80;99.90;;;;;;4979650;28;20023;-71
2023/05/23 11:01:11;;;;;;;0.85;0.82;;;18.80;99.90;;;;;;4980545;28;20038;-71
2023/05/23 11:03:46;;;;;;;1.20;0.90;;;18.90;99.90;;;;;;4980565;28;20029;-72
2023/05/23 11:06:37;;;;;;;1.75;1.10;;;18.90;99.90;;;;;;4979635;28;20019;-72
2023/05/23 11:09:20;;;;;;;1.13;1.00;;;19.10;99.90;;;;;;4980491;28;20027;-72
2023/05/23 11:11:56;;;;;;;5.22;0.90;;;19.10;99.90;;;;;;4979677;28;20027;-71
2023/05/23 11:14:36;;;;;;;0.80;0.80;;;19.30;99.90;;;;;;4980357;28;20019;-71
2023/05/23 11:17:11;;;;;;;1.27;1.00;;;19.40;99.90;;;;;;4980358;28;20023;-71
2023/05/23 11:19:55;;;;;;;1.05;0.93;;;19.60;99.90;;;;;;4979774;28;20030;-71
2023/05/23 11:22:26;;;;;;;2.78;1.08;;;19.40;99.90;;;;;;4979703;28;20030;-71
2023/05/23 11:24:53;;;;;;;1.48;1.17;;;19.50;99.90;;;;;;4979304;28;20026;-71
2023/05/23 11:27:25;;;;;;;2.08;1.10;;;19.60;99.90;;;;;;4979868;28;20027;-71
2023/05/23 11:30:08;;;;;;;2.33;1.25;;;19.40;99.90;;;;;;4979218;28;20026;-71
2023/05/23 11:32:35;;;;;;;0.90;0.80;;;19.20;99.90;;;;;;4980256;28;20027;-72
2023/05/23 11:35:06;;;;;;;1.40;1.00;;;19.10;99.90;;;;;;4979878;28;20033;-72
2023/05/23 11:37:31;;;;;;;1.10;1.00;;;19.20;99.90;;;;;;4979069;28;20022;-71
2023/05/23 11:39:58;;;;;;;2.08;0.93;;;19.10;99.90;;;;;;4979764;28;20089;-72
2023/05/23 11:42:24;;;;;;;2.55;0.80;;;19.20;99.90;;;;;;4979701;28;20042;-72
2023/05/23 11:44:50;;;;;;;1.48;1.20;;;19.10;99.90;;;;;;4978941;28;20058;-71
2023/05/23 11:47:17;;;;;;;1.45;1.15;;;19.20;99.90;;;;;;4978823;28;20023;-73
2023/05/23 11:49:45;;;;;;;2.70;1.20;;;19.20;99.90;;;;;;4978820;28;20027;-72
2023/05/23 11:52:11;;;;;;;2.33;1.20;;;19.30;99.90;;;;;;4978666;28;20034;-72
2023/05/23 11:54:38;;;;;;;1.25;1.15;;;19.40;99.90;;;;;;4979841;28;20030;-72
2023/05/23 11:57:04;;;;;;;4.03;1.48;;;19.40;99.90;;;;;;4979162;28;20030;-72
2023/05/23 11:59:30;;;;;;;2.20;1.40;;;19.40;99.90;;;;;;4978869;28;20054;-71
2023/05/23 12:01:55;;;;;;;1.52;1.33;;;19.50;99.90;;;;;;4978957;28;20061;-72
2023/05/23 12:04:21;;;;;;;1.23;0.93;;;19.40;99.90;;;;;;4978504;28;20173;-72
2023/05/23 12:06:48;;;;;;;3.38;1.08;;;19.60;99.90;;;;;;4978418;28;20030;-72
2023/05/23 12:09:14;;;;;;;1.10;1.00;;;19.60;99.90;;;;;;4978667;28;20058;-72
2023/05/23 12:11:41;;;;;;;1.75;1.35;;;19.50;99.90;;;;;;4978731;28;20029;-72
2023/05/23 12:14:07;;;;;;;1.40;1.20;;;19.40;99.90;;;;;;4978300;28;20031;-72
2023/05/23 12:16:34;;;;;;;1.92;1.42;;;19.40;99.90;;;;;;4978539;28;20031;-72
2023/05/23 12:19:01;;;;;;;1.75;1.45;;;19.20;99.90;;;;;;4978911;28;20027;-72
2023/05/23 12:21:47;;;;;;;3.33;1.80;;;19.20;99.90;;;;;;5009376;23;20066;-71
2023/05/23 12:24:19;;;;;;;1.98;1.67;;;18.90;99.90;;;;;;4997677;28;20026;-71
2023/05/23 12:26:54;;;;;;;2.30;1.67;;;18.80;99.90;;;;;;4998522;28;20046;-71
2023/05/23 12:29:31;;;;;;;2.53;1.73;;;19.00;99.90;;;;;;4997551;28;20026;-71
2023/05/23 12:32:01;;;;;;;2.42;1.92;;;19.10;99.90;;;;;;4997892;28;20050;-71
2023/05/23 12:34:27;;;;;;;2.75;1.98;;;19.20;99.90;;;;;;4998143;28;20026;-71
2023/05/23 12:36:57;;;;;;;2.63;1.80;;;19.30;99.90;;;;;;4998223;28;20081;-71
2023/05/23 12:39:29;;;;;;;2.08;1.83;;;19.30;99.90;;;;;;4997144;28;20026;-71
2023/05/23 12:42:07;;;;;;;3.08;1.85;;;19.30;99.90;;;;;;4997423;28;20030;-71
2023/05/23 12:44:33;;;;;;;3.38;2.20;;;19.20;99.90;;;;;;4997366;28;20026;-71